sensor_id;sensor_type;location;lat;lon;timestamp;temperature;humidity
18932;DHT22;9598;50.954;3.112;2024-02-15T00:02:16;13.40;99.90
18932;DHT22;9598;50.954;3.112;2024-02-15T00:07:18;13.50;99.90
18932;DHT22;9598;50.954;3.112;2024-02-15T00:12:24;13.50;99.90
18932;DHT22;9598;50.954;3.112;2024-02-15T00:17:27;13.50;99.90
18932;DHT22;9598;50.954;3.112;2024-02-15T00:22:31;13.50;99.90
18932;DHT22;9598;50.954;3.112;2024-02-15T00:27:35;13.50;99.90
18932;DHT22;9598;50.954;3.112;2024-02-15T00:32:37;13.50;99.90
18932;DHT22;9598;50.954;3.112;2024-02-15T00:37:40;13.50;99.90
18932;DHT22;9598;50.954;3.112;2024-02-15T00:42:44;13.60;99.90
18932;DHT22;9598;50.954;3.112;2024-02-15T00:47:46;13.60;99.90
18932;DHT22;9598;50.954;3.112;2024-02-15T00:52:49;13.60;99.90
18932;DHT22;9598;50.954;3.112;2024-02-15T00:57:52;13.60;99.90
18932;DHT22;9598;50.954;3.112;2024-02-15T01:02:55;13.60;99.90
18932;DHT22;9598;50.954;3.112;2024-02-15T01:07:57;13.60;99.90
18932;DHT22;9598;50.954;3.112;2024-02-15T01:13:01;13.60;99.90
18932;DHT22;9598;50.954;3.112;2024-02-15T01:18:03;13.60;99.90
18932;DHT22;9598;50.954;3.112;2024-02-15T01:23:05;13.60;99.90
18932;DHT22;9598;50.954;3.112;2024-02-15T01:28:09;13.60;99.90
18932;DHT22;9598;50.954;3.112;2024-02-15T01:33:11;13.60;99.90
18932;DHT22;9598;50.954;3.112;2024-02-15T01:38:14;13.60;99.90
18932;DHT22;9598;50.954;3.112;2024-02-15T01:43:18;13.60;99.90
18932;DHT22;9598;50.954;3.112;2024-02-15T01:48:20;13.60;99.90
18932;DHT22;9598;50.954;3.112;2024-02-15T01:53:23;13.60;99.90
18932;DHT22;9598;50.954;3.112;2024-02-15T01:58:27;13.60;99.90
18932;DHT22;9598;50.954;3.112;2024-02-15T02:03:33;13.60;99.90
18932;DHT22;9598;50.954;3.112;2024-02-15T02:08:35;13.60;99.90
18932;DHT22;9598;50.954;3.112;2024-02-15T02:13:39;13.60;99.90
18932;DHT22;9598;50.954;3.112;2024-02-15T02:18:41;13.60;99.90
18932;DHT22;9598;50.954;3.112;2024-02-15T02:23:45;13.60;99.90
18932;DHT22;9598;50.954;3.112;2024-02-15T02:28:52;13.60;99.90
18932;DHT22;9598;50.954;3.112;2024-02-15T02:33:55;13.60;99.90
18932;DHT22;9598;50.954;3.112;2024-02-15T02:38:59;13.60;99.90
18932;DHT22;9598;50.954;3.112;2024-02-15T02:44:03;13.50;99.90
18932;DHT22;9598;50.954;3.112;2024-02-15T02:49:06;13.50;99.90
18932;DHT22;9598;50.954;3.112;2024-02-15T02:54:08;13.50;99.90
18932;DHT22;9598;50.954;3.112;2024-02-15T02:59:11;13.50;99.90
18932;DHT22;9598;50.954;3.112;2024-02-15T03:04:15;13.50;99.90
18932;DHT22;9598;50.954;3.112;2024-02-15T03:09:17;13.50;99.90
18932;DHT22;9598;50.954;3.112;2024-02-15T03:14:23;13.50;99.90
18932;DHT22;9598;50.954;3.112;2024-02-15T03:19:26;13.50;99.90
18932;DHT22;9598;50.954;3.112;2024-02-15T03:24:28;13.50;99.90
18932;DHT22;9598;50.954;3.112;2024-02-15T03:29:32;13.50;99.90
18932;DHT22;9598;50.954;3.112;2024-02-15T03:34:36;13.50;99.90
18932;DHT22;9598;50.954;3.112;2024-02-15T03:39:40;13.50;99.90
18932;DHT22;9598;50.954;3.112;2024-02-15T03:44:45;13.50;99.90
18932;DHT22;9598;50.954;3.112;2024-02-15T03:49:48;13.50;99.90
18932;DHT22;9598;50.954;3.112;2024-02-15T03:54:51;13.50;99.90
18932;DHT22;9598;50.954;3.112;2024-02-15T03:59:56;13.50;99.90
18932;DHT22;9598;50.954;3.112;2024-02-15T04:04:59;13.50;99.90
18932;DHT22;9598;50.954;3.112;2024-02-15T04:10:03;13.50;99.90
18932;DHT22;9598;50.954;3.112;2024-02-15T04:15:07;13.50;99.90
18932;DHT22;9598;50.954;3.112;2024-02-15T04:20:12;13.40;99.90
18932;DHT22;9598;50.954;3.112;2024-02-15T04:25:16;13.50;99.90
18932;DHT22;9598;50.954;3.112;2024-02-15T04:30:22;13.50;99.90
18932;DHT22;9598;50.954;3.112;2024-02-15T04:35:25;13.50;99.90
18932;DHT22;9598;50.954;3.112;2024-02-15T04:40:28;13.40;99.90
18932;DHT22;9598;50.954;3.112;2024-02-15T04:45:32;13.40;99.90
18932;DHT22;9598;50.954;3.112;2024-02-15T04:50:35;13.40;99.90
18932;DHT22;9598;50.954;3.112;2024-02-15T04:55:37;13.50;99.90
18932;DHT22;9598;50.954;3.112;2024-02-15T05:00:41;13.50;99.90
18932;DHT22;9598;50.954;3.112;2024-02-15T05:05:43;13.50;99.90
18932;DHT22;9598;50.954;3.112;2024-02-15T05:10:45;13.50;99.90
18932;DHT22;9598;50.954;3.112;2024-02-15T05:15:49;13.50;99.90
18932;DHT22;9598;50.954;3.112;2024-02-15T05:20:51;13.50;99.90
18932;DHT22;9598;50.954;3.112;2024-02-15T05:25:54;13.50;99.90
18932;DHT22;9598;50.954;3.112;2024-02-15T05:31:11;13.50;99.90
18932;DHT22;9598;50.954;3.112;2024-02-15T05:36:16;13.50;99.90
18932;DHT22;9598;50.954;3.112;2024-02-15T05:41:21;13.50;99.90
18932;DHT22;9598;50.954;3.112;2024-02-15T05:46:25;13.50;99.90
18932;DHT22;9598;50.954;3.112;2024-02-15T05:51:28;13.50;99.90
18932;DHT22;9598;50.954;3.112;2024-02-15T05:56:32;13.50;99.90
18932;DHT22;9598;50.954;3.112;2024-02-15T06:01:35;13.50;99.90
18932;DHT22;9598;50.954;3.112;2024-02-15T06:06:38;13.50;99.90
18932;DHT22;9598;50.954;3.112;2024-02-15T06:11:40;13.50;99.90
18932;DHT22;9598;50.954;3.112;2024-02-15T06:16:46;13.50;99.90
18932;DHT22;9598;50.954;3.112;2024-02-15T06:21:49;13.60;99.90
18932;DHT22;9598;50.954;3.112;2024-02-15T06:26:51;13.50;99.90
18932;DHT22;9598;50.954;3.112;2024-02-15T06:32:01;13.50;99.90
18932;DHT22;9598;50.954;3.112;2024-02-15T06:37:37;13.50;99.90
18932;DHT22;9598;50.954;3.112;2024-02-15T06:42:57;13.40;99.90
18932;DHT22;9598;50.954;3.112;2024-02-15T06:48:01;13.40;99.90
18932;DHT22;9598;50.954;3.112;2024-02-15T06:53:03;13.30;99.90
18932;DHT22;9598;50.954;3.112;2024-02-15T06:58:05;13.30;99.90
18932;DHT22;9598;50.954;3.112;2024-02-15T07:03:09;13.30;99.90
18932;DHT22;9598;50.954;3.112;2024-02-15T07:08:11;13.20;99.90
18932;DHT22;9598;50.954;3.112;2024-02-15T07:13:15;13.20;99.90
18932;DHT22;9598;50.954;3.112;2024-02-15T07:18:18;13.20;99.90
18932;DHT22;9598;50.954;3.112;2024-02-15T07:23:23;13.10;99.90
18932;DHT22;9598;50.954;3.112;2024-02-15T07:28:26;13.10;99.90
18932;DHT22;9598;50.954;3.112;2024-02-15T07:33:29;13.10;99.90
18932;DHT22;9598;50.954;3.112;2024-02-15T07:38:31;13.10;99.90
18932;DHT22;9598;50.954;3.112;2024-02-15T07:43:35;13.10;99.90
18932;DHT22;9598;50.954;3.112;2024-02-15T07:48:38;13.10;99.90
18932;DHT22;9598;50.954;3.112;2024-02-15T07:53:46;13.10;99.90
18932;DHT22;9598;50.954;3.112;2024-02-15T07:58:49;13.10;99.90
18932;DHT22;9598;50.954;3.112;2024-02-15T08:03:54;13.10;99.90
18932;DHT22;9598;50.954;3.112;2024-02-15T08:08:57;13.10;99.90
18932;DHT22;9598;50.954;3.112;2024-02-15T08:13:59;13.20;99.90
18932;DHT22;9598;50.954;3.112;2024-02-15T08:19:03;13.20;99.90
18932;DHT22;9598;50.954;3.112;2024-02-15T08:24:06;13.20;99.90
18932;DHT22;9598;50.954;3.112;2024-02-15T08:29:10;13.30;99.90
18932;DHT22;9598;50.954;3.112;2024-02-15T08:34:16;13.30;99.90
18932;DHT22;9598;50.954;3.112;2024-02-15T08:39:20;13.30;99.90
18932;DHT22;9598;50.954;3.112;2024-02-15T08:44:22;13.30;99.90
18932;DHT22;9598;50.954;3.112;2024-02-15T08:49:27;13.40;99.90
18932;DHT22;9598;50.954;3.112;2024-02-15T08:54:31;13.50;99.90
18932;DHT22;9598;50.954;3.112;2024-02-15T08:59:33;13.50;99.90
18932;DHT22;9598;50.954;3.112;2024-02-15T09:04:37;13.60;99.90
18932;DHT22;9598;50.954;3.112;2024-02-15T09:09:39;13.70;99.90
18932;DHT22;9598;50.954;3.112;2024-02-15T09:14:42;13.70;99.90
18932;DHT22;9598;50.954;3.112;2024-02-15T09:19:46;13.80;99.90
18932;DHT22;9598;50.954;3.112;2024-02-15T09:24:49;13.90;99.90
18932;DHT22;9598;50.954;3.112;2024-02-15T09:29:52;13.90;99.90
18932;DHT22;9598;50.954;3.112;2024-02-15T09:34:57;14.00;99.90
18932;DHT22;9598;50.954;3.112;2024-02-15T09:39:59;14.00;99.90
18932;DHT22;9598;50.954;3.112;2024-02-15T09:45:07;14.10;99.90
18932;DHT22;9598;50.954;3.112;2024-02-15T09:50:13;14.20;99.90
18932;DHT22;9598;50.954;3.112;2024-02-15T09:55:16;14.20;99.90
18932;DHT22;9598;50.954;3.112;2024-02-15T10:00:19;14.40;99.90
18932;DHT22;9598;50.954;3.112;2024-02-15T10:05:23;14.50;99.90
18932;DHT22;9598;50.954;3.112;2024-02-15T10:10:27;14.70;99.90
18932;DHT22;9598;50.954;3.112;2024-02-15T10:15:30;14.80;99.90
18932;DHT22;9598;50.954;3.112;2024-02-15T10:20:34;15.00;99.90
18932;DHT22;9598;50.954;3.112;2024-02-15T10:25:39;15.20;99.90
18932;DHT22;9598;50.954;3.112;2024-02-15T10:30:42;15.30;99.90
18932;DHT22;9598;50.954;3.112;2024-02-15T10:35:47;15.30;99.90
18932;DHT22;9598;50.954;3.112;2024-02-15T10:40:50;15.40;99.90
18932;DHT22;9598;50.954;3.112;2024-02-15T10:45:52;15.40;99.90
18932;DHT22;9598;50.954;3.112;2024-02-15T10:50:59;15.50;99.90
18932;DHT22;9598;50.954;3.112;2024-02-15T10:56:13;15.50;99.90
18932;DHT22;9598;50.954;3.112;2024-02-15T11:01:18;15.50;99.90
18932;DHT22;9598;50.954;3.112;2024-02-15T11:06:26;15.60;99.90
18932;DHT22;9598;50.954;3.112;2024-02-15T11:11:30;15.60;99.90
18932;DHT22;9598;50.954;3.112;2024-02-15T11:16:42;15.70;99.90
18932;DHT22;9598;50.954;3.112;2024-02-15T11:21:55;15.70;99.90
18932;DHT22;9598;50.954;3.112;2024-02-15T11:26:58;15.70;99.90
18932;DHT22;9598;50.954;3.112;2024-02-15T11:32:03;15.70;99.90
18932;DHT22;9598;50.954;3.112;2024-02-15T11:37:07;15.70;99.90
18932;DHT22;9598;50.954;3.112;2024-02-15T11:42:25;15.80;99.90
18932;DHT22;9598;50.954;3.112;2024-02-15T11:47:30;15.80;99.90
18932;DHT22;9598;50.954;3.112;2024-02-15T11:52:35;15.80;99.90
18932;DHT22;9598;50.954;3.112;2024-02-15T11:57:39;15.90;99.90
18932;DHT22;9598;50.954;3.112;2024-02-15T12:02:51;15.90;99.90
18932;DHT22;9598;50.954;3.112;2024-02-15T12:08:12;15.90;99.90
18932;DHT22;9598;50.954;3.112;2024-02-15T12:13:32;16.00;99.90
18932;DHT22;9598;50.954;3.112;2024-02-15T12:18:52;16.20;99.90
18932;DHT22;9598;50.954;3.112;2024-02-15T12:23:56;16.50;99.90
18932;DHT22;9598;50.954;3.112;2024-02-15T12:28:58;16.50;99.90
18932;DHT22;9598;50.954;3.112;2024-02-15T12:34:02;16.50;99.90
18932;DHT22;9598;50.954;3.112;2024-02-15T12:39:08;16.50;99.90
18932;DHT22;9598;50.954;3.112;2024-02-15T12:44:16;16.60;99.90
18932;DHT22;9598;50.954;3.112;2024-02-15T12:49:29;16.70;99.90
18932;DHT22;9598;50.954;3.112;2024-02-15T12:54:33;16.80;99.90
18932;DHT22;9598;50.954;3.112;2024-02-15T12:59:35;16.70;99.90
18932;DHT22;9598;50.954;3.112;2024-02-15T13:04:38;16.60;99.90
18932;DHT22;9598;50.954;3.112;2024-02-15T13:09:43;16.60;99.90
18932;DHT22;9598;50.954;3.112;2024-02-15T13:14:46;16.60;99.90
18932;DHT22;9598;50.954;3.112;2024-02-15T13:19:50;16.60;99.90
18932;DHT22;9598;50.954;3.112;2024-02-15T13:24:54;16.60;99.90
18932;DHT22;9598;50.954;3.112;2024-02-15T13:29:57;16.60;99.90
18932;DHT22;9598;50.954;3.112;2024-02-15T13:34:59;16.60;99.90
18932;DHT22;9598;50.954;3.112;2024-02-15T13:40:10;16.70;99.90
18932;DHT22;9598;50.954;3.112;2024-02-15T13:45:16;16.70;99.90
18932;DHT22;9598;50.954;3.112;2024-02-15T13:50:18;16.80;99.90
18932;DHT22;9598;50.954;3.112;2024-02-15T13:55:22;16.80;99.90
18932;DHT22;9598;50.954;3.112;2024-02-15T14:00:26;16.80;99.90
18932;DHT22;9598;50.954;3.112;2024-02-15T14:05:32;16.80;99.90
18932;DHT22;9598;50.954;3.112;2024-02-15T14:10:35;16.80;99.90
18932;DHT22;9598;50.954;3.112;2024-02-15T14:15:38;16.80;99.90
18932;DHT22;9598;50.954;3.112;2024-02-15T14:20:41;16.80;99.90
18932;DHT22;9598;50.954;3.112;2024-02-15T14:25:45;16.70;99.90
18932;DHT22;9598;50.954;3.112;2024-02-15T14:30:47;16.70;99.90
18932;DHT22;9598;50.954;3.112;2024-02-15T14:36:08;16.70;99.90
18932;DHT22;9598;50.954;3.112;2024-02-15T14:41:11;16.70;99.90
18932;DHT22;9598;50.954;3.112;2024-02-15T14:46:13;16.60;99.90
18932;DHT22;9598;50.954;3.112;2024-02-15T14:51:16;16.60;99.90
18932;DHT22;9598;50.954;3.112;2024-02-15T14:56:21;16.60;99.90
18932;DHT22;9598;50.954;3.112;2024-02-15T15:01:23;16.60;99.90
18932;DHT22;9598;50.954;3.112;2024-02-15T15:06:26;16.60;99.90
18932;DHT22;9598;50.954;3.112;2024-02-15T15:11:47;16.50;99.90
18932;DHT22;9598;50.954;3.112;2024-02-15T15:17:07;16.50;99.90
18932;DHT22;9598;50.954;3.112;2024-02-15T15:22:10;16.50;99.90
18932;DHT22;9598;50.954;3.112;2024-02-15T15:27:14;16.40;99.90
18932;DHT22;9598;50.954;3.112;2024-02-15T15:32:16;16.30;99.90
18932;DHT22;9598;50.954;3.112;2024-02-15T15:37:18;16.30;99.90
18932;DHT22;9598;50.954;3.112;2024-02-15T15:42:25;16.30;99.90
18932;DHT22;9598;50.954;3.112;2024-02-15T15:47:28;16.20;99.90
18932;DHT22;9598;50.954;3.112;2024-02-15T15:52:31;16.10;99.90
18932;DHT22;9598;50.954;3.112;2024-02-15T15:57:35;16.10;99.90
18932;DHT22;9598;50.954;3.112;2024-02-15T16:02:39;16.00;99.90
18932;DHT22;9598;50.954;3.112;2024-02-15T16:07:42;16.00;99.90
18932;DHT22;9598;50.954;3.112;2024-02-15T16:12:45;16.00;99.90
18932;DHT22;9598;50.954;3.112;2024-02-15T16:17:47;15.90;99.90
18932;DHT22;9598;50.954;3.112;2024-02-15T16:22:50;15.90;99.90
18932;DHT22;9598;50.954;3.112;2024-02-15T16:27:53;15.90;99.90
18932;DHT22;9598;50.954;3.112;2024-02-15T16:32:57;15.80;99.90
18932;DHT22;9598;50.954;3.112;2024-02-15T16:37:59;15.80;99.90
18932;DHT22;9598;50.954;3.112;2024-02-15T16:43:03;15.80;99.90
18932;DHT22;9598;50.954;3.112;2024-02-15T16:48:05;15.80;99.90
18932;DHT22;9598;50.954;3.112;2024-02-15T16:53:08;15.70;99.90
18932;DHT22;9598;50.954;3.112;2024-02-15T16:58:12;15.60;99.90
18932;DHT22;9598;50.954;3.112;2024-02-15T17:03:14;15.60;99.90
18932;DHT22;9598;50.954;3.112;2024-02-15T17:08:17;15.60;99.90
18932;DHT22;9598;50.954;3.112;2024-02-15T17:13:23;15.60;99.90
18932;DHT22;9598;50.954;3.112;2024-02-15T17:18:25;15.50;99.90
18932;DHT22;9598;50.954;3.112;2024-02-15T17:23:27;15.50;99.90
18932;DHT22;9598;50.954;3.112;2024-02-15T17:28:31;15.40;99.90
18932;DHT22;9598;50.954;3.112;2024-02-15T17:33:33;15.40;99.90
18932;DHT22;9598;50.954;3.112;2024-02-15T17:38:37;15.40;99.90
18932;DHT22;9598;50.954;3.112;2024-02-15T17:43:40;15.30;99.90
18932;DHT22;9598;50.954;3.112;2024-02-15T17:48:42;15.30;99.90
18932;DHT22;9598;50.954;3.112;2024-02-15T17:53:45;15.30;99.90
18932;DHT22;9598;50.954;3.112;2024-02-15T17:58:49;15.30;99.90
18932;DHT22;9598;50.954;3.112;2024-02-15T18:03:51;15.30;99.90
18932;DHT22;9598;50.954;3.112;2024-02-15T18:08:55;15.20;99.90
18932;DHT22;9598;50.954;3.112;2024-02-15T18:13:59;15.20;99.90
18932;DHT22;9598;50.954;3.112;2024-02-15T18:19:02;15.20;99.90
18932;DHT22;9598;50.954;3.112;2024-02-15T18:24:05;15.10;99.90
18932;DHT22;9598;50.954;3.112;2024-02-15T18:29:10;15.10;99.90
18932;DHT22;9598;50.954;3.112;2024-02-15T18:34:14;15.10;99.90
18932;DHT22;9598;50.954;3.112;2024-02-15T18:39:16;15.00;99.90
18932;DHT22;9598;50.954;3.112;2024-02-15T18:44:20;15.00;99.90
18932;DHT22;9598;50.954;3.112;2024-02-15T18:49:24;15.00;99.90
18932;DHT22;9598;50.954;3.112;2024-02-15T18:54:27;15.00;99.90
18932;DHT22;9598;50.954;3.112;2024-02-15T18:59:31;14.90;99.90
18932;DHT22;9598;50.954;3.112;2024-02-15T19:04:36;14.90;99.90
18932;DHT22;9598;50.954;3.112;2024-02-15T19:09:39;14.90;99.90
18932;DHT22;9598;50.954;3.112;2024-02-15T19:14:43;14.80;99.90
18932;DHT22;9598;50.954;3.112;2024-02-15T19:19:45;14.80;99.90
18932;DHT22;9598;50.954;3.112;2024-02-15T19:24:47;14.80;99.90
18932;DHT22;9598;50.954;3.112;2024-02-15T19:29:53;14.80;99.90
18932;DHT22;9598;50.954;3.112;2024-02-15T19:34:55;14.70;99.90
18932;DHT22;9598;50.954;3.112;2024-02-15T19:39:57;14.70;99.90
18932;DHT22;9598;50.954;3.112;2024-02-15T19:45:00;14.70;99.90
18932;DHT22;9598;50.954;3.112;2024-02-15T19:50:03;14.60;99.90
18932;DHT22;9598;50.954;3.112;2024-02-15T19:55:07;14.60;99.90
18932;DHT22;9598;50.954;3.112;2024-02-15T20:00:13;14.60;99.90
18932;DHT22;9598;50.954;3.112;2024-02-15T20:05:15;14.50;99.90
18932;DHT22;9598;50.954;3.112;2024-02-15T20:10:18;14.50;99.90
18932;DHT22;9598;50.954;3.112;2024-02-15T20:15:21;14.50;99.90
18932;DHT22;9598;50.954;3.112;2024-02-15T20:20:25;14.50;99.90
18932;DHT22;9598;50.954;3.112;2024-02-15T20:25:27;14.40;99.90
18932;DHT22;9598;50.954;3.112;2024-02-15T20:30:31;14.40;99.90
18932;DHT22;9598;50.954;3.112;2024-02-15T20:35:34;14.40;99.90
18932;DHT22;9598;50.954;3.112;2024-02-15T20:40:36;14.40;99.90
18932;DHT22;9598;50.954;3.112;2024-02-15T20:45:39;14.30;99.90
18932;DHT22;9598;50.954;3.112;2024-02-15T20:50:42;14.40;99.90
18932;DHT22;9598;50.954;3.112;2024-02-15T20:55:44;14.30;99.90
18932;DHT22;9598;50.954;3.112;2024-02-15T21:00:48;14.30;99.90
18932;DHT22;9598;50.954;3.112;2024-02-15T21:05:50;14.30;99.90
18932;DHT22;9598;50.954;3.112;2024-02-15T21:10:54;14.30;99.90
18932;DHT22;9598;50.954;3.112;2024-02-15T21:16:02;14.30;99.90
18932;DHT22;9598;50.954;3.112;2024-02-15T21:21:08;14.30;99.90
18932;DHT22;9598;50.954;3.112;2024-02-15T21:26:11;14.30;99.90
18932;DHT22;9598;50.954;3.112;2024-02-15T21:31:14;14.40;99.90
18932;DHT22;9598;50.954;3.112;2024-02-15T21:36:16;14.40;99.90
18932;DHT22;9598;50.954;3.112;2024-02-15T21:41:20;14.40;99.90
18932;DHT22;9598;50.954;3.112;2024-02-15T21:46:24;14.30;99.90
18932;DHT22;9598;50.954;3.112;2024-02-15T21:51:26;14.30;99.90
18932;DHT22;9598;50.954;3.112;2024-02-15T21:56:29;14.30;99.90
18932;DHT22;9598;50.954;3.112;2024-02-15T22:01:37;14.30;99.90
18932;DHT22;9598;50.954;3.112;2024-02-15T22:06:44;14.30;99.90
18932;DHT22;9598;50.954;3.112;2024-02-15T22:11:47;14.30;99.90
18932;DHT22;9598;50.954;3.112;2024-02-15T22:16:50;14.30;99.90
18932;DHT22;9598;50.954;3.112;2024-02-15T22:21:52;14.30;99.90
18932;DHT22;9598;50.954;3.112;2024-02-15T22:26:54;14.30;99.90
18932;DHT22;9598;50.954;3.112;2024-02-15T22:32:00;14.30;99.90
18932;DHT22;9598;50.954;3.112;2024-02-15T22:37:03;14.20;99.90
18932;DHT22;9598;50.954;3.112;2024-02-15T22:42:05;14.20;99.90
18932;DHT22;9598;50.954;3.112;2024-02-15T22:47:09;14.20;99.90
18932;DHT22;9598;50.954;3.112;2024-02-15T22:52:11;14.10;99.90
18932;DHT22;9598;50.954;3.112;2024-02-15T22:57:14;14.10;99.90
18932;DHT22;9598;50.954;3.112;2024-02-15T23:02:19;14.10;99.90
18932;DHT22;9598;50.954;3.112;2024-02-15T23:07:22;14.10;99.90
18932;DHT22;9598;50.954;3.112;2024-02-15T23:12:25;14.10;99.90
18932;DHT22;9598;50.954;3.112;2024-02-15T23:17:29;14.00;99.90
18932;DHT22;9598;50.954;3.112;2024-02-15T23:22:32;14.00;99.90
18932;DHT22;9598;50.954;3.112;2024-02-15T23:27:34;14.00;99.90
18932;DHT22;9598;50.954;3.112;2024-02-15T23:32:37;14.00;99.90
18932;DHT22;9598;50.954;3.112;2024-02-15T23:37:40;14.00;99.90
18932;DHT22;9598;50.954;3.112;2024-02-15T23:42:59;14.00;99.90
18932;DHT22;9598;50.954;3.112;2024-02-15T23:48:04;14.00;99.90
18932;DHT22;9598;50.954;3.112;2024-02-15T23:53:07;14.00;99.90
18932;DHT22;9598;50.954;3.112;2024-02-15T23:58:10;14.00;99.90
